createdAt,value
2022-09-30T00:00:09.744Z,6.15
2022-09-30T00:01:09.728Z,6.15
2022-09-30T00:02:09.744Z,6.12
2022-09-30T00:03:09.770Z,6.09
2022-09-30T00:04:09.678Z,6.09
2022-09-30T00:05:09.655Z,6.09
2022-09-30T00:06:09.678Z,6.10
2022-09-30T00:07:09.625Z,6.12
2022-09-30T00:08:09.649Z,6.13
2022-09-30T00:09:09.666Z,6.16
2022-09-30T00:10:09.638Z,6.17
2022-09-30T00:11:09.596Z,6.17
2022-09-30T00:12:09.578Z,6.25
2022-09-30T00:13:09.574Z,6.25
2022-09-30T00:14:09.565Z,6.29
2022-09-30T00:15:09.521Z,6.29
2022-09-30T00:16:09.837Z,6.29
2022-09-30T00:17:09.496Z,6.31
2022-09-30T00:18:09.486Z,6.32
2022-09-30T00:19:09.464Z,6.32
2022-09-30T00:20:09.435Z,6.31
2022-09-30T00:21:09.457Z,6.29
2022-09-30T00:22:09.417Z,6.19
2022-09-30T00:23:09.422Z,6.20
2022-09-30T00:24:09.416Z,6.19
2022-09-30T00:25:09.387Z,6.17
2022-09-30T00:26:09.405Z,6.16
2022-09-30T00:27:09.345Z,6.12
2022-09-30T00:28:09.345Z,6.05
2022-09-30T00:29:09.335Z,5.99
2022-09-30T00:30:09.338Z,5.97
2022-09-30T00:31:09.365Z,5.94
2022-09-30T00:32:09.293Z,5.91
2022-09-30T00:33:09.303Z,5.88
2022-09-30T00:34:09.528Z,5.88
2022-09-30T00:35:09.255Z,5.90
2022-09-30T00:36:09.265Z,5.92
2022-09-30T00:37:09.227Z,5.94
2022-09-30T00:38:09.216Z,5.95
2022-09-30T00:39:09.237Z,5.94
2022-09-30T00:40:09.177Z,5.94
2022-09-30T00:41:09.203Z,5.91
2022-09-30T00:42:09.159Z,5.88
2022-09-30T00:43:09.159Z,5.83
2022-09-30T00:44:09.235Z,5.77
2022-09-30T00:45:09.131Z,5.72
2022-09-30T00:46:09.105Z,5.69
2022-09-30T00:47:09.156Z,5.73
2022-09-30T00:48:09.073Z,5.77
2022-09-30T00:49:09.054Z,5.79
2022-09-30T00:50:09.055Z,5.80
2022-09-30T00:51:09.049Z,5.81
2022-09-30T00:52:09.025Z,5.79
2022-09-30T00:53:09.016Z,5.80
2022-09-30T00:54:08.985Z,5.77
2022-09-30T00:55:08.975Z,5.74
2022-09-30T00:56:08.980Z,5.72
2022-09-30T00:57:08.974Z,5.65
2022-09-30T00:58:08.956Z,5.62
2022-09-30T00:59:08.944Z,5.59
2022-09-30T01:00:08.915Z,5.55
2022-09-30T01:01:08.959Z,5.54
2022-09-30T01:02:08.958Z,5.52
2022-09-30T01:03:08.885Z,5.55
2022-09-30T01:04:08.866Z,5.59
2022-09-30T01:05:08.855Z,5.58
2022-09-30T01:06:08.837Z,5.62
2022-09-30T01:07:08.846Z,5.65
2022-09-30T01:08:08.828Z,5.69
2022-09-30T01:09:08.826Z,5.72
2022-09-30T01:10:08.802Z,5.74
2022-09-30T01:11:08.773Z,5.77
2022-09-30T01:12:08.775Z,5.77
2022-09-30T01:13:08.745Z,5.77
2022-09-30T01:14:08.715Z,5.74
2022-09-30T01:15:08.715Z,5.74
2022-09-30T01:16:08.764Z,5.72
2022-09-30T01:17:08.715Z,5.67
2022-09-30T01:18:08.714Z,5.67
2022-09-30T01:19:08.706Z,5.65
2022-09-30T01:20:08.691Z,5.67
2022-09-30T01:21:08.675Z,5.65
2022-09-30T01:22:08.646Z,5.69
2022-09-30T01:23:08.624Z,5.70
2022-09-30T01:24:08.604Z,5.69
2022-09-30T01:25:08.614Z,5.67
2022-09-30T01:26:08.566Z,5.64
2022-09-30T01:27:08.585Z,5.61
2022-09-30T01:28:08.576Z,5.55
2022-09-30T01:29:08.556Z,5.49
2022-09-30T01:30:08.543Z,5.40
2022-09-30T01:31:08.559Z,5.36
2022-09-30T01:32:08.512Z,5.34
2022-09-30T01:33:08.569Z,5.31
2022-09-30T01:34:08.505Z,5.31
2022-09-30T01:35:08.471Z,5.29
2022-09-30T01:36:08.435Z,5.26
2022-09-30T01:37:08.434Z,5.28
2022-09-30T01:38:08.425Z,5.28
2022-09-30T01:39:08.406Z,5.33
2022-09-30T01:40:08.396Z,5.34
2022-09-30T01:41:08.385Z,5.36
2022-09-30T01:42:08.356Z,5.38
2022-09-30T01:43:08.376Z,5.41
2022-09-30T01:44:08.346Z,5.40
2022-09-30T01:45:08.334Z,5.41
2022-09-30T01:46:08.305Z,5.36
2022-09-30T01:47:08.287Z,5.43
2022-09-30T01:48:08.295Z,5.44
2022-09-30T01:49:08.277Z,5.43
2022-09-30T01:50:08.248Z,5.34
2022-09-30T01:51:08.246Z,5.33
2022-09-30T01:52:08.226Z,5.29
2022-09-30T01:53:08.252Z,5.31
2022-09-30T01:54:08.225Z,5.26
2022-09-30T01:55:08.203Z,5.25
2022-09-30T01:56:08.195Z,5.23
2022-09-30T01:57:08.164Z,5.25
2022-09-30T01:58:08.162Z,5.28
2022-09-30T01:59:08.143Z,5.31
2022-09-30T02:00:08.131Z,5.34
2022-09-30T02:01:08.171Z,5.36
2022-09-30T02:02:08.128Z,5.38
2022-09-30T02:03:08.104Z,5.41
2022-09-30T02:04:08.095Z,5.44
2022-09-30T02:05:08.065Z,5.49
2022-09-30T02:06:08.035Z,5.49
2022-09-30T02:07:08.032Z,5.51
2022-09-30T02:08:08.024Z,5.51
2022-09-30T02:09:08.066Z,5.52
2022-09-30T02:10:07.991Z,5.54
2022-09-30T02:11:08.021Z,5.54
2022-09-30T02:12:07.955Z,5.54
2022-09-30T02:13:07.965Z,5.55
2022-09-30T02:14:07.936Z,5.56
2022-09-30T02:15:07.924Z,5.56
2022-09-30T02:16:07.914Z,5.56
2022-09-30T02:17:07.903Z,5.58
2022-09-30T02:18:07.885Z,5.59
2022-09-30T02:19:07.874Z,5.61
2022-09-30T02:20:07.852Z,5.61
2022-09-30T02:21:07.842Z,5.62
2022-09-30T02:22:07.834Z,5.64
2022-09-30T02:23:07.834Z,5.65
2022-09-30T02:24:07.808Z,5.64
2022-09-30T02:25:07.774Z,5.61
2022-09-30T02:26:07.764Z,5.62
2022-09-30T02:27:07.761Z,5.64
2022-09-30T02:28:07.761Z,5.62
2022-09-30T02:29:07.744Z,5.62
2022-09-30T02:30:07.715Z,5.65
2022-09-30T02:31:07.744Z,5.67
2022-09-30T02:32:07.687Z,5.70
2022-09-30T02:33:07.705Z,5.73
2022-09-30T02:34:07.686Z,5.76
2022-09-30T02:35:07.660Z,5.79
2022-09-30T02:36:07.644Z,5.80
2022-09-30T02:37:07.634Z,5.77
2022-09-30T02:38:07.643Z,5.76
2022-09-30T02:39:07.728Z,5.73
2022-09-30T02:40:07.723Z,5.72
2022-09-30T02:41:07.701Z,5.70
2022-09-30T02:42:07.603Z,5.72
2022-09-30T02:43:07.665Z,5.73
2022-09-30T02:44:07.750Z,5.73
2022-09-30T02:45:07.633Z,5.79
2022-09-30T02:46:07.504Z,5.80
2022-09-30T02:47:07.490Z,5.87
2022-09-30T02:48:07.473Z,5.91
2022-09-30T02:49:07.483Z,5.92
2022-09-30T02:50:07.445Z,5.97
2022-09-30T02:51:07.441Z,5.99
2022-09-30T02:52:07.423Z,6.01
2022-09-30T02:53:07.411Z,6.01
2022-09-30T02:54:07.442Z,6.05
2022-09-30T02:55:07.395Z,6.02
2022-09-30T02:56:07.372Z,6.05
2022-09-30T02:57:07.351Z,6.07
2022-09-30T02:58:07.334Z,6.06
2022-09-30T02:59:07.354Z,6.02
2022-09-30T03:00:12.557Z,5.99
2022-09-30T03:01:08.391Z,5.97
2022-09-30T03:02:07.320Z,5.95
2022-09-30T03:03:07.281Z,5.91
2022-09-30T03:04:07.283Z,5.84
2022-09-30T03:05:07.253Z,5.81
2022-09-30T03:06:07.231Z,5.79
2022-09-30T03:07:07.224Z,5.73
2022-09-30T03:08:07.205Z,5.70
2022-09-30T03:09:07.249Z,5.70
2022-09-30T03:10:07.174Z,5.72
2022-09-30T03:11:07.171Z,5.72
2022-09-30T03:12:07.163Z,5.73
2022-09-30T03:13:07.142Z,5.72
2022-09-30T03:14:07.155Z,5.73
2022-09-30T03:15:07.122Z,5.72
2022-09-30T03:16:09.737Z,5.72
2022-09-30T03:17:07.122Z,5.73
2022-09-30T03:18:07.093Z,5.79
2022-09-30T03:19:07.153Z,5.83
2022-09-30T03:20:07.070Z,5.88
2022-09-30T03:21:07.105Z,5.88
2022-09-30T03:22:07.042Z,5.91
2022-09-30T03:23:07.013Z,5.92
2022-09-30T03:24:07.012Z,5.92
2022-09-30T03:25:07.202Z,5.94
2022-09-30T03:26:06.965Z,5.92
2022-09-30T03:27:06.963Z,5.94
2022-09-30T03:28:06.940Z,5.95
2022-09-30T03:29:06.933Z,5.98
2022-09-30T03:30:06.935Z,5.98
2022-09-30T03:31:06.940Z,6.01
2022-09-30T03:32:06.893Z,6.01
2022-09-30T03:33:06.882Z,6.02
2022-09-30T03:34:06.853Z,5.99
2022-09-30T03:35:06.873Z,5.97
2022-09-30T03:36:06.830Z,5.95
2022-09-30T03:37:06.822Z,5.98
2022-09-30T03:38:06.809Z,5.98
2022-09-30T03:39:06.785Z,5.99
2022-09-30T03:40:06.792Z,5.99
2022-09-30T03:41:06.793Z,6.01
2022-09-30T03:42:06.762Z,6.05
2022-09-30T03:43:06.732Z,6.07
2022-09-30T03:44:06.740Z,6.10
2022-09-30T03:45:06.733Z,6.15
2022-09-30T03:46:06.702Z,6.20
2022-09-30T03:47:06.691Z,6.28
2022-09-30T03:48:06.681Z,6.36
2022-09-30T03:49:06.677Z,6.39
2022-09-30T03:50:06.673Z,6.38
2022-09-30T03:51:06.622Z,6.35
2022-09-30T03:52:06.624Z,6.32
2022-09-30T03:53:06.608Z,6.29
2022-09-30T03:54:06.611Z,6.16
2022-09-30T03:55:06.626Z,6.02
2022-09-30T03:56:06.585Z,5.94
2022-09-30T03:57:06.540Z,5.83
2022-09-30T03:58:06.541Z,5.80
2022-09-30T03:59:06.530Z,5.79
2022-09-30T04:00:06.564Z,5.76
2022-09-30T04:01:06.633Z,5.72
2022-09-30T04:02:06.557Z,5.69
2022-09-30T04:03:06.476Z,5.70
2022-09-30T04:04:06.473Z,5.74
2022-09-30T04:05:06.441Z,5.76
2022-09-30T04:06:06.451Z,5.77
2022-09-30T04:07:06.420Z,5.83
2022-09-30T04:08:06.411Z,5.88
2022-09-30T04:09:06.429Z,5.90
2022-09-30T04:10:06.383Z,5.88
2022-09-30T04:11:06.380Z,5.83
2022-09-30T04:12:06.376Z,5.79
2022-09-30T04:13:06.339Z,5.77
2022-09-30T04:14:06.341Z,5.73
2022-09-30T04:15:06.311Z,5.73
2022-09-30T04:16:06.397Z,5.73
2022-09-30T04:17:06.280Z,5.69
2022-09-30T04:18:06.301Z,5.69
2022-09-30T04:19:06.256Z,5.73
2022-09-30T04:20:06.249Z,5.77
2022-09-30T04:21:06.232Z,5.84
2022-09-30T04:22:06.220Z,5.87
2022-09-30T04:23:06.191Z,5.88
2022-09-30T04:24:06.212Z,5.97
2022-09-30T04:25:06.178Z,6.02
2022-09-30T04:26:06.171Z,6.06
2022-09-30T04:27:06.150Z,6.07
2022-09-30T04:28:06.142Z,6.06
2022-09-30T04:29:06.122Z,6.09
2022-09-30T04:30:06.102Z,6.06
2022-09-30T04:31:06.166Z,6.09
2022-09-30T04:32:06.091Z,6.10
2022-09-30T04:33:06.121Z,6.10
2022-09-30T04:34:06.081Z,6.10
2022-09-30T04:35:06.103Z,6.05
2022-09-30T04:36:06.050Z,6.02
2022-09-30T04:37:10.636Z,6.01
2022-09-30T04:38:06.021Z,5.94
2022-09-30T04:39:06.002Z,5.79
2022-09-30T04:40:05.982Z,5.67
2022-09-30T04:41:05.990Z,5.59
2022-09-30T04:42:06.016Z,5.55
2022-09-30T04:43:05.956Z,5.52
2022-09-30T04:44:05.943Z,5.47
2022-09-30T04:45:05.909Z,5.41
2022-09-30T04:46:06.062Z,5.37
2022-09-30T04:47:05.884Z,5.34
2022-09-30T04:48:05.869Z,5.37
2022-09-30T04:49:09.104Z,5.43
2022-09-30T04:50:05.854Z,5.43
2022-09-30T04:51:05.880Z,5.41
2022-09-30T04:52:05.865Z,5.37
2022-09-30T04:53:05.791Z,5.36
2022-09-30T04:54:05.820Z,5.37
2022-09-30T04:55:05.781Z,5.38
2022-09-30T04:56:05.782Z,5.46
2022-09-30T04:57:05.749Z,5.52
2022-09-30T04:58:05.761Z,5.54
2022-09-30T04:59:05.751Z,5.56
2022-09-30T05:00:05.733Z,5.52
2022-09-30T05:01:05.777Z,5.49
2022-09-30T05:02:05.765Z,5.49
2022-09-30T05:03:05.671Z,5.41
2022-09-30T05:04:05.670Z,5.37
2022-09-30T05:05:05.703Z,5.36
2022-09-30T05:06:05.670Z,5.34
2022-09-30T05:07:05.619Z,5.29
2022-09-30T05:08:05.614Z,5.29
2022-09-30T05:09:05.709Z,5.36
2022-09-30T05:10:05.585Z,5.38
2022-09-30T05:11:05.612Z,5.40
2022-09-30T05:12:05.561Z,5.38
2022-09-30T05:13:05.562Z,5.37
2022-09-30T05:14:05.623Z,5.36
2022-09-30T05:15:05.529Z,5.36
2022-09-30T05:16:05.576Z,5.37
2022-09-30T05:17:05.480Z,5.34
2022-09-30T05:18:05.548Z,5.31
2022-09-30T05:19:05.459Z,5.29
2022-09-30T05:20:05.456Z,5.26
2022-09-30T05:21:05.428Z,5.28
2022-09-30T05:22:05.460Z,5.26
2022-09-30T05:23:05.430Z,5.26
2022-09-30T05:24:05.452Z,5.29
2022-09-30T05:25:05.392Z,5.37
2022-09-30T05:26:09.710Z,5.43
2022-09-30T05:27:06.375Z,5.52
2022-09-30T05:28:05.350Z,5.56
2022-09-30T05:29:05.350Z,5.61
2022-09-30T05:30:05.342Z,5.65
2022-09-30T05:31:05.380Z,5.72
2022-09-30T05:32:05.313Z,5.76
2022-09-30T05:33:05.269Z,5.79
2022-09-30T05:34:05.267Z,5.76
2022-09-30T05:35:05.260Z,5.76
2022-09-30T05:36:05.229Z,5.77
2022-09-30T05:37:05.241Z,5.80
2022-09-30T05:38:05.189Z,5.77
2022-09-30T05:39:05.198Z,5.74
2022-09-30T05:40:05.188Z,5.74
2022-09-30T05:41:05.169Z,5.79
2022-09-30T05:42:05.210Z,5.81
2022-09-30T05:43:05.141Z,6.01
2022-09-30T05:44:05.141Z,6.74
2022-09-30T05:45:05.099Z,7.28
2022-09-30T05:46:05.098Z,7.69
2022-09-30T05:47:05.132Z,8.01
2022-09-30T05:48:05.077Z,8.31
2022-09-30T05:49:05.069Z,8.45
2022-09-30T05:50:05.051Z,8.57
2022-09-30T05:51:05.041Z,8.39
2022-09-30T05:52:05.029Z,8.14
2022-09-30T05:53:05.041Z,7.85
2022-09-30T05:54:05.013Z,7.62
2022-09-30T05:55:04.999Z,7.40
2022-09-30T05:56:05.010Z,7.21
2022-09-30T05:57:04.959Z,6.97
2022-09-30T05:58:05.211Z,6.82
2022-09-30T05:59:04.944Z,6.68
2022-09-30T06:00:04.931Z,6.59
2022-09-30T06:01:10.655Z,6.49
2022-09-30T06:02:06.071Z,6.41
2022-09-30T06:03:04.962Z,6.32
2022-09-30T06:04:04.868Z,6.29
2022-09-30T06:05:04.848Z,6.20
2022-09-30T06:06:04.843Z,6.09
2022-09-30T06:07:09.584Z,6.02
2022-09-30T06:08:05.830Z,5.95
2022-09-30T06:09:04.874Z,5.91
2022-09-30T06:10:04.800Z,5.81
2022-09-30T06:11:04.782Z,5.77
2022-09-30T06:12:04.759Z,5.72
2022-09-30T06:13:04.758Z,5.69
2022-09-30T06:14:04.730Z,5.65
2022-09-30T06:15:04.719Z,5.67
2022-09-30T06:16:04.802Z,5.69
2022-09-30T06:17:04.697Z,5.69
2022-09-30T06:18:04.708Z,5.69
2022-09-30T06:19:04.677Z,5.72
2022-09-30T06:20:04.786Z,5.67
2022-09-30T06:21:04.827Z,5.64
2022-09-30T06:22:04.629Z,5.55
2022-09-30T06:23:04.648Z,5.54
2022-09-30T06:24:04.624Z,5.52
2022-09-30T06:25:04.628Z,5.46
2022-09-30T06:26:04.580Z,5.41
2022-09-30T06:27:04.579Z,5.43
2022-09-30T06:28:04.578Z,5.46
2022-09-30T06:29:04.546Z,5.49
2022-09-30T06:30:04.519Z,5.49
2022-09-30T06:31:04.497Z,5.51
2022-09-30T06:32:04.567Z,5.52
2022-09-30T06:33:04.566Z,5.51
2022-09-30T06:34:04.481Z,5.52
2022-09-30T06:35:04.459Z,5.56
2022-09-30T06:36:04.503Z,5.62
2022-09-30T06:37:04.428Z,5.67
2022-09-30T06:38:04.410Z,5.74
2022-09-30T06:39:04.419Z,5.79
2022-09-30T06:40:04.390Z,5.84
2022-09-30T06:41:04.370Z,5.88
2022-09-30T06:42:04.359Z,5.91
2022-09-30T06:43:04.351Z,5.90
2022-09-30T06:44:04.358Z,5.94
2022-09-30T06:45:04.319Z,5.94
2022-09-30T06:46:14.997Z,5.95
2022-09-30T06:47:08.606Z,5.98
2022-09-30T06:48:05.388Z,6.01
2022-09-30T06:49:12.783Z,6.02
2022-09-30T06:50:05.878Z,6.07
2022-09-30T06:51:04.279Z,6.07
2022-09-30T06:52:04.236Z,6.10
2022-09-30T06:53:04.218Z,6.13
2022-09-30T06:54:04.219Z,6.12
2022-09-30T06:55:04.189Z,6.12
2022-09-30T06:56:04.180Z,6.15
2022-09-30T06:57:04.168Z,6.16
2022-09-30T06:58:04.207Z,6.17
2022-09-30T06:59:04.158Z,6.22
2022-09-30T07:00:04.130Z,6.20
2022-09-30T07:01:04.213Z,6.22
2022-09-30T07:02:04.176Z,6.20
2022-09-30T07:03:04.124Z,6.20
2022-09-30T07:04:04.094Z,6.26
2022-09-30T07:05:04.060Z,6.26
2022-09-30T07:06:04.061Z,6.28
2022-09-30T07:07:04.037Z,6.28
2022-09-30T07:08:04.019Z,6.28
2022-09-30T07:09:04.095Z,6.28
2022-09-30T07:10:03.993Z,6.29
2022-09-30T07:11:03.978Z,6.31
2022-09-30T07:12:03.969Z,6.32
2022-09-30T07:13:03.959Z,6.36
2022-09-30T07:14:03.958Z,6.38
2022-09-30T07:15:03.931Z,6.35
2022-09-30T07:16:03.971Z,6.34
2022-09-30T07:17:03.907Z,6.35
2022-09-30T07:18:03.889Z,6.36
2022-09-30T07:19:03.891Z,6.39
2022-09-30T07:20:03.856Z,6.43
2022-09-30T07:21:03.849Z,6.46
2022-09-30T07:22:03.837Z,6.47
2022-09-30T07:23:03.818Z,6.47
2022-09-30T07:24:03.834Z,6.44
2022-09-30T07:25:03.883Z,6.38
2022-09-30T07:26:03.788Z,6.34
2022-09-30T07:27:04.027Z,6.31
2022-09-30T07:28:03.860Z,6.26
2022-09-30T07:29:03.768Z,6.22
2022-09-30T07:30:09.731Z,6.19
2022-09-30T07:31:30.749Z,6.13
2022-09-30T07:32:04.795Z,6.10
2022-09-30T07:33:03.687Z,6.09
2022-09-30T07:34:03.730Z,6.01
2022-09-30T07:35:03.657Z,5.97
2022-09-30T07:36:03.656Z,5.90
2022-09-30T07:37:03.649Z,5.81
2022-09-30T07:38:03.619Z,5.77
2022-09-30T07:39:03.658Z,5.76
2022-09-30T07:40:03.599Z,5.76
2022-09-30T07:41:03.579Z,5.76
2022-09-30T07:42:03.547Z,5.80
2022-09-30T07:43:03.558Z,5.84
2022-09-30T07:44:03.715Z,5.83
2022-09-30T07:45:03.528Z,5.79
2022-09-30T07:46:03.632Z,5.76
2022-09-30T07:47:03.485Z,5.72
2022-09-30T07:48:03.678Z,5.73
2022-09-30T07:49:03.466Z,5.72
2022-09-30T07:50:03.466Z,5.69
2022-09-30T07:51:03.451Z,5.62
2022-09-30T07:52:03.438Z,5.61
2022-09-30T07:53:03.414Z,5.64
2022-09-30T07:54:03.427Z,5.70
2022-09-30T07:55:03.387Z,5.72
2022-09-30T07:56:03.381Z,5.72
2022-09-30T07:57:11.549Z,5.73
2022-09-30T07:58:04.346Z,5.73
2022-09-30T07:59:03.356Z,5.77
2022-09-30T08:00:23.050Z,5.76
2022-09-30T08:01:04.367Z,5.74
2022-09-30T08:02:03.326Z,5.74
2022-09-30T08:03:03.286Z,5.73
2022-09-30T08:04:03.285Z,5.80
2022-09-30T08:05:03.258Z,5.87
2022-09-30T08:06:03.245Z,5.97
2022-09-30T08:07:03.243Z,6.07
2022-09-30T08:08:03.224Z,6.13
2022-09-30T08:09:03.248Z,6.09
2022-09-30T08:10:03.208Z,6.05
2022-09-30T08:11:03.184Z,5.99
2022-09-30T08:12:03.199Z,6.01
2022-09-30T08:13:05.688Z,6.06
2022-09-30T08:14:03.155Z,6.10
2022-09-30T08:15:03.137Z,6.06
2022-09-30T08:16:03.124Z,5.99
2022-09-30T08:17:03.103Z,6.05
2022-09-30T08:18:03.086Z,6.09
2022-09-30T08:19:03.097Z,6.17
2022-09-30T08:20:03.057Z,6.25
2022-09-30T08:21:03.047Z,6.22
2022-09-30T08:23:03.027Z,6.17
2022-09-30T08:24:03.065Z,6.22
2022-09-30T08:25:02.998Z,6.32
2022-09-30T08:26:02.979Z,6.38
2022-09-30T08:27:03.008Z,6.44
2022-09-30T08:28:02.966Z,6.50
2022-09-30T08:29:02.957Z,6.54
2022-09-30T08:30:04.685Z,6.43
2022-09-30T08:31:02.935Z,6.39
2022-09-30T08:32:03.009Z,6.35
2022-09-30T08:33:02.896Z,6.31
2022-09-30T08:34:02.896Z,6.20
2022-09-30T08:35:02.867Z,6.17
2022-09-30T08:36:02.846Z,6.20
2022-09-30T08:37:08.361Z,6.29
2022-09-30T08:38:03.848Z,6.38
2022-09-30T08:39:02.830Z,6.47
2022-09-30T08:40:02.797Z,6.54
2022-09-30T08:41:02.825Z,6.60
2022-09-30T08:42:13.719Z,6.65
2022-09-30T08:43:03.764Z,6.70
2022-09-30T08:44:02.755Z,6.78
2022-09-30T08:45:02.727Z,6.83
2022-09-30T08:46:02.863Z,6.86
2022-09-30T08:47:02.709Z,6.86
2022-09-30T08:48:02.735Z,6.86
2022-09-30T08:49:03.567Z,6.89
2022-09-30T08:50:03.060Z,6.90
2022-09-30T08:51:02.658Z,6.92
2022-09-30T08:52:02.675Z,6.95
2022-09-30T08:53:03.163Z,6.97
2022-09-30T08:54:02.616Z,7.01
2022-09-30T08:55:02.627Z,7.04
2022-09-30T08:56:02.870Z,7.08
2022-09-30T08:57:02.576Z,7.13
2022-09-30T08:58:02.662Z,7.13
2022-09-30T08:59:02.557Z,7.14
2022-09-30T09:00:02.548Z,7.14
2022-09-30T09:01:02.600Z,7.18
2022-09-30T09:02:02.554Z,7.19
2022-09-30T09:03:02.507Z,7.23
2022-09-30T09:04:02.483Z,7.28
2022-09-30T09:05:02.516Z,7.31
2022-09-30T09:06:02.469Z,7.37
2022-09-30T09:07:02.466Z,7.39
2022-09-30T09:08:02.436Z,7.40
2022-09-30T09:09:02.446Z,7.43
2022-09-30T09:10:02.435Z,7.47
2022-09-30T09:11:02.407Z,7.48
2022-09-30T09:12:02.386Z,7.48
2022-09-30T09:13:02.379Z,7.51
2022-09-30T09:14:02.358Z,7.55
2022-09-30T09:15:02.368Z,7.59
2022-09-30T09:16:02.337Z,7.56
2022-09-30T09:17:02.363Z,7.55
2022-09-30T09:18:22.569Z,7.59
2022-09-30T09:19:03.304Z,7.62
2022-09-30T09:20:02.288Z,7.66
2022-09-30T09:21:02.288Z,7.69
2022-09-30T09:22:02.287Z,7.69
2022-09-30T09:23:02.246Z,7.78
2022-09-30T09:24:02.296Z,7.81
2022-09-30T09:25:02.308Z,7.85
2022-09-30T09:26:02.227Z,7.91
2022-09-30T09:27:02.247Z,7.96
2022-09-30T09:28:02.290Z,7.90
2022-09-30T09:29:02.188Z,7.85
2022-09-30T09:30:02.166Z,7.81
2022-09-30T09:31:02.468Z,7.72
2022-09-30T09:32:02.236Z,7.67
2022-09-30T09:33:02.108Z,7.64
2022-09-30T09:34:02.111Z,7.69
2022-09-30T09:35:02.097Z,7.74
2022-09-30T09:36:02.070Z,7.80
2022-09-30T09:37:02.047Z,7.85
2022-09-30T09:38:02.047Z,7.88
2022-09-30T09:39:02.037Z,7.95
2022-09-30T09:40:04.329Z,8.05
2022-09-30T09:41:02.007Z,8.11
2022-09-30T09:42:02.004Z,8.17
2022-09-30T09:43:01.987Z,8.24
2022-09-30T09:44:01.956Z,8.28
2022-09-30T09:45:01.974Z,8.34
2022-09-30T09:46:01.986Z,8.35
2022-09-30T09:47:01.934Z,8.38
2022-09-30T09:48:01.908Z,8.42
2022-09-30T09:49:01.900Z,8.44
2022-09-30T09:50:01.877Z,8.46
2022-09-30T09:51:01.908Z,8.50
2022-09-30T09:52:01.866Z,8.52
2022-09-30T09:53:01.847Z,8.46
2022-09-30T09:54:01.829Z,8.38
2022-09-30T09:55:01.827Z,8.38
2022-09-30T09:56:01.846Z,8.39
2022-09-30T09:57:01.802Z,8.41
2022-09-30T09:58:01.776Z,8.45
2022-09-30T09:59:01.775Z,8.49
2022-09-30T10:00:01.751Z,8.54
2022-09-30T10:01:04.093Z,8.59
2022-09-30T10:02:01.770Z,8.64
2022-09-30T10:03:01.716Z,8.68
2022-09-30T10:04:01.688Z,8.69
2022-09-30T10:05:01.677Z,8.74
2022-09-30T10:06:01.691Z,8.75
2022-09-30T10:07:01.733Z,8.78
2022-09-30T10:08:01.636Z,8.78
2022-09-30T10:09:01.632Z,8.82
2022-09-30T10:10:01.609Z,8.86
2022-09-30T10:11:01.622Z,8.87
2022-09-30T10:12:01.583Z,8.93
2022-09-30T10:13:01.575Z,8.99
2022-09-30T10:14:01.596Z,9.03
2022-09-30T10:15:01.541Z,9.05
2022-09-30T10:16:01.610Z,9.09
2022-09-30T10:17:01.517Z,9.11
2022-09-30T10:18:01.507Z,9.13
2022-09-30T10:19:03.972Z,9.18
2022-09-30T10:20:02.466Z,9.22
2022-09-30T10:21:01.468Z,9.27
2022-09-30T10:22:01.436Z,9.33
2022-09-30T10:23:01.427Z,9.37
2022-09-30T10:24:01.416Z,9.42
2022-09-30T10:25:01.407Z,9.42
2022-09-30T10:26:01.437Z,9.19
2022-09-30T10:27:01.375Z,9.12
2022-09-30T10:28:01.459Z,9.05
2022-09-30T10:29:01.357Z,9.11
2022-09-30T10:30:01.337Z,9.12
2022-09-30T10:31:01.338Z,9.18
2022-09-30T10:32:01.363Z,9.22
2022-09-30T10:33:01.296Z,9.30
2022-09-30T10:34:01.284Z,9.33
2022-09-30T10:35:01.260Z,9.40
2022-09-30T10:36:01.247Z,9.44
2022-09-30T10:37:01.270Z,9.40
2022-09-30T10:38:01.226Z,9.47
2022-09-30T10:39:04.105Z,9.49
2022-09-30T10:40:02.199Z,9.55
2022-09-30T10:41:01.195Z,9.63
2022-09-30T10:42:01.188Z,9.72
2022-09-30T10:43:01.156Z,9.82
2022-09-30T10:44:01.170Z,9.92
2022-09-30T10:45:01.174Z,10.05
2022-09-30T10:46:21.251Z,10.15
2022-09-30T10:47:02.304Z,10.23
2022-09-30T10:48:01.097Z,10.36
2022-09-30T10:49:01.089Z,10.45
2022-09-30T10:50:01.061Z,10.57
2022-09-30T10:51:01.058Z,10.64
2022-09-30T10:52:01.088Z,10.72
2022-09-30T10:53:01.030Z,10.79
2022-09-30T10:54:01.018Z,10.86
2022-09-30T10:55:01.102Z,10.94
2022-09-30T10:56:00.988Z,11.01
2022-09-30T10:57:01.551Z,11.12
2022-09-30T10:58:00.957Z,11.15
2022-09-30T10:59:00.948Z,11.22
2022-09-30T11:00:00.937Z,11.25
2022-09-30T11:01:00.959Z,11.25
2022-09-30T11:02:02.975Z,11.19
2022-09-30T11:03:00.915Z,11.20
2022-09-30T11:04:00.893Z,11.30
2022-09-30T11:05:00.859Z,11.38
2022-09-30T11:06:00.868Z,11.51
2022-09-30T11:07:00.857Z,11.52
2022-09-30T11:08:00.817Z,11.59
2022-09-30T11:09:00.797Z,11.68
2022-09-30T11:10:00.787Z,11.76
2022-09-30T11:11:02.776Z,11.85
2022-09-30T11:12:07.901Z,11.91
2022-09-30T11:13:00.779Z,12.00
2022-09-30T11:14:00.729Z,12.05
2022-09-30T11:15:00.731Z,12.10
2022-09-30T11:16:00.713Z,12.11
2022-09-30T11:17:00.715Z,12.14
2022-09-30T11:18:00.671Z,12.20
2022-09-30T11:19:00.674Z,12.26
2022-09-30T11:20:00.654Z,12.32
2022-09-30T11:21:00.672Z,12.37
2022-09-30T11:22:00.661Z,12.45
2022-09-30T11:23:00.630Z,12.76
2022-09-30T11:24:00.589Z,13.16
2022-09-30T11:25:00.581Z,13.67
2022-09-30T11:26:00.562Z,14.07
2022-09-30T11:27:00.552Z,14.44
2022-09-30T11:28:00.600Z,14.81
2022-09-30T11:29:00.542Z,15.15
2022-09-30T11:30:00.511Z,15.41
2022-09-30T11:31:03.781Z,15.62
2022-09-30T11:32:01.536Z,15.80
2022-09-30T11:33:00.494Z,15.91
2022-09-30T11:34:00.462Z,16.00
2022-09-30T11:35:00.777Z,16.08
2022-09-30T11:36:00.451Z,16.06
2022-09-30T11:37:00.427Z,16.00
2022-09-30T11:38:00.424Z,16.03
2022-09-30T11:39:00.392Z,16.05
2022-09-30T11:40:00.428Z,16.08
2022-09-30T11:41:00.384Z,16.08
2022-09-30T11:42:00.373Z,16.12
2022-09-30T11:43:06.283Z,16.17
2022-09-30T11:44:01.326Z,16.17
2022-09-30T11:45:00.430Z,16.18
2022-09-30T11:46:00.361Z,16.22
2022-09-30T11:47:00.311Z,16.24
2022-09-30T11:48:00.305Z,16.25
2022-09-30T11:49:00.280Z,16.29
2022-09-30T11:50:00.274Z,16.28
2022-09-30T11:51:00.253Z,16.18
2022-09-30T11:52:00.233Z,16.13
2022-09-30T11:53:00.242Z,16.16
2022-09-30T11:54:00.203Z,16.12
2022-09-30T11:55:00.196Z,16.16
2022-09-30T11:56:00.193Z,16.10
2022-09-30T11:57:00.165Z,16.08
2022-09-30T11:58:05.297Z,16.06
2022-09-30T11:59:01.150Z,16.00
2022-09-30T12:00:00.159Z,15.99
2022-09-30T12:01:00.169Z,16.00
2022-09-30T12:02:00.153Z,16.09
2022-09-30T12:03:00.166Z,16.17
2022-09-30T12:04:00.080Z,16.26
2022-09-30T12:05:00.066Z,16.32
2022-09-30T12:06:00.129Z,16.43
2022-09-30T12:07:00.039Z,16.51
2022-09-30T12:08:00.037Z,16.61
2022-09-30T12:09:00.095Z,16.66
2022-09-30T12:10:00.023Z,16.74
2022-09-30T12:10:59.978Z,16.72
2022-09-30T12:11:59.974Z,16.66
2022-09-30T12:12:59.965Z,16.66
2022-09-30T12:13:59.945Z,16.69
2022-09-30T12:15:00.324Z,16.73
2022-09-30T12:15:59.946Z,16.74
2022-09-30T12:17:00.236Z,16.72
2022-09-30T12:17:59.905Z,16.64
2022-09-30T12:18:59.857Z,16.55
2022-09-30T12:19:59.855Z,16.51
2022-09-30T12:20:59.866Z,16.49
2022-09-30T12:21:59.873Z,16.44
2022-09-30T12:22:59.826Z,16.47
2022-09-30T12:23:59.806Z,16.57
2022-09-30T12:24:59.786Z,16.65
2022-09-30T12:25:59.776Z,16.69
2022-09-30T12:26:59.786Z,16.74
2022-09-30T12:27:59.823Z,16.74
2022-09-30T12:29:03.336Z,16.76
2022-09-30T12:29:59.725Z,16.77
2022-09-30T12:30:59.706Z,16.76
2022-09-30T12:31:59.722Z,16.82
2022-09-30T12:32:59.695Z,16.86
2022-09-30T12:33:59.672Z,16.91
2022-09-30T12:34:59.657Z,16.94
2022-09-30T12:35:59.629Z,16.99
2022-09-30T12:36:59.628Z,17.09
2022-09-30T12:37:59.667Z,17.16
2022-09-30T12:38:59.639Z,17.19
2022-09-30T12:39:59.578Z,17.22
2022-09-30T12:40:59.572Z,17.30
2022-09-30T12:41:59.557Z,17.32
2022-09-30T12:42:59.558Z,17.37
2022-09-30T12:43:59.536Z,17.38
2022-09-30T12:44:59.518Z,17.38
2022-09-30T12:45:59.583Z,17.30
2022-09-30T12:46:59.532Z,17.28
2022-09-30T12:47:59.583Z,17.31
2022-09-30T12:48:59.469Z,17.37
2022-09-30T12:49:59.448Z,17.41
2022-09-30T12:50:59.428Z,17.38
2022-09-30T12:51:59.428Z,17.35
2022-09-30T12:52:59.419Z,17.34
2022-09-30T12:53:59.397Z,17.38
2022-09-30T12:54:59.380Z,17.46
2022-09-30T12:55:59.359Z,17.49
2022-09-30T12:56:59.369Z,17.56
2022-09-30T12:57:59.349Z,17.46
2022-09-30T12:58:59.319Z,17.49
2022-09-30T12:59:59.325Z,17.57
2022-09-30T13:00:59.344Z,17.54
2022-09-30T13:01:59.311Z,17.56
2022-09-30T13:02:59.289Z,17.56
2022-09-30T13:03:59.278Z,17.34
2022-09-30T13:04:59.248Z,17.34
2022-09-30T13:05:59.257Z,17.12
2022-09-30T13:06:59.959Z,16.89
2022-09-30T13:07:59.259Z,16.64
2022-09-30T13:08:59.219Z,16.39
2022-09-30T13:09:59.180Z,16.18
2022-09-30T13:10:59.166Z,16.10
2022-09-30T13:11:59.179Z,16.05
2022-09-30T13:12:59.170Z,16.03
2022-09-30T13:13:59.120Z,15.94